sensor_id;sensor_type;location;lat;lon;timestamp;P1;durP1;ratioP1;P2;durP2;ratioP2
49566;SDS011;35472;50.514;30.448;2022-10-26T00:01:03;4.93;;;4.60;;
49566;SDS011;35472;50.514;30.448;2022-10-26T00:03:49;5.90;;;4.75;;
49566;SDS011;35472;50.514;30.448;2022-10-26T00:06:17;7.70;;;6.15;;
49566;SDS011;35472;50.514;30.448;2022-10-26T00:08:44;7.28;;;5.78;;
49566;SDS011;35472;50.514;30.448;2022-10-26T00:11:10;18.02;;;6.60;;
49566;SDS011;35472;50.514;30.448;2022-10-26T00:13:37;8.13;;;6.13;;
49566;SDS011;35472;50.514;30.448;2022-10-26T00:16:07;9.70;;;7.65;;
49566;SDS011;35472;50.514;30.448;2022-10-26T00:18:34;9.68;;;6.93;;
49566;SDS011;35472;50.514;30.448;2022-10-26T00:21:03;8.20;;;6.97;;
49566;SDS011;35472;50.514;30.448;2022-10-26T00:23:29;9.30;;;7.25;;
49566;SDS011;35472;50.514;30.448;2022-10-26T00:25:55;8.45;;;6.60;;
49566;SDS011;35472;50.514;30.448;2022-10-26T00:28:21;9.75;;;7.85;;
49566;SDS011;35472;50.514;30.448;2022-10-26T00:30:47;9.10;;;7.53;;
49566;SDS011;35472;50.514;30.448;2022-10-26T00:33:12;15.00;;;9.45;;
49566;SDS011;35472;50.514;30.448;2022-10-26T00:35:38;9.45;;;8.45;;
49566;SDS011;35472;50.514;30.448;2022-10-26T00:38:03;12.38;;;9.23;;
49566;SDS011;35472;50.514;30.448;2022-10-26T00:40:28;12.32;;;8.32;;
49566;SDS011;35472;50.514;30.448;2022-10-26T00:42:54;9.70;;;8.23;;
49566;SDS011;35472;50.514;30.448;2022-10-26T00:45:24;9.10;;;7.15;;
49566;SDS011;35472;50.514;30.448;2022-10-26T00:48:02;9.98;;;7.15;;
49566;SDS011;35472;50.514;30.448;2022-10-26T00:50:32;10.68;;;7.65;;
49566;SDS011;35472;50.514;30.448;2022-10-26T00:53:04;7.38;;;6.47;;
49566;SDS011;35472;50.514;30.448;2022-10-26T00:55:34;7.35;;;6.60;;
49566;SDS011;35472;50.514;30.448;2022-10-26T00:58:03;7.05;;;5.75;;
49566;SDS011;35472;50.514;30.448;2022-10-26T01:00:30;6.22;;;5.63;;
49566;SDS011;35472;50.514;30.448;2022-10-26T01:02:57;6.30;;;5.68;;
49566;SDS011;35472;50.514;30.448;2022-10-26T01:05:25;6.30;;;5.40;;
49566;SDS011;35472;50.514;30.448;2022-10-26T01:07:51;7.57;;;5.80;;
49566;SDS011;35472;50.514;30.448;2022-10-26T01:10:19;5.55;;;4.78;;
49566;SDS011;35472;50.514;30.448;2022-10-26T01:12:44;5.85;;;5.25;;
49566;SDS011;35472;50.514;30.448;2022-10-26T01:15:11;7.47;;;5.75;;
49566;SDS011;35472;50.514;30.448;2022-10-26T01:23:22;7.05;;;6.13;;
49566;SDS011;35472;50.514;30.448;2022-10-26T01:26:07;6.25;;;5.38;;
49566;SDS011;35472;50.514;30.448;2022-10-26T01:31:40;7.40;;;5.63;;
49566;SDS011;35472;50.514;30.448;2022-10-26T01:34:11;6.47;;;4.70;;
49566;SDS011;35472;50.514;30.448;2022-10-26T01:36:52;7.72;;;5.28;;
49566;SDS011;35472;50.514;30.448;2022-10-26T01:39:26;7.28;;;5.43;;
49566;SDS011;35472;50.514;30.448;2022-10-26T01:41:58;6.00;;;5.15;;
49566;SDS011;35472;50.514;30.448;2022-10-26T01:46:56;6.95;;;5.25;;
49566;SDS011;35472;50.514;30.448;2022-10-26T01:49:34;6.63;;;5.10;;
49566;SDS011;35472;50.514;30.448;2022-10-26T01:52:02;5.85;;;5.03;;
49566;SDS011;35472;50.514;30.448;2022-10-26T01:54:28;9.63;;;5.55;;
49566;SDS011;35472;50.514;30.448;2022-10-26T01:56:54;5.97;;;5.05;;
49566;SDS011;35472;50.514;30.448;2022-10-26T02:07:24;9.30;;;5.88;;
49566;SDS011;35472;50.514;30.448;2022-10-26T02:13:15;8.38;;;5.80;;
49566;SDS011;35472;50.514;30.448;2022-10-26T02:15:58;9.07;;;6.38;;
49566;SDS011;35472;50.514;30.448;2022-10-26T02:19:26;6.63;;;5.32;;
49566;SDS011;35472;50.514;30.448;2022-10-26T02:21:44;6.90;;;5.28;;
49566;SDS011;35472;50.514;30.448;2022-10-26T02:24:13;9.88;;;6.88;;
49566;SDS011;35472;50.514;30.448;2022-10-26T02:26:41;8.55;;;5.57;;
49566;SDS011;35472;50.514;30.448;2022-10-26T02:29:10;9.80;;;6.18;;
49566;SDS011;35472;50.514;30.448;2022-10-26T02:31:39;6.50;;;5.80;;
49566;SDS011;35472;50.514;30.448;2022-10-26T02:34:07;8.57;;;5.35;;
49566;SDS011;35472;50.514;30.448;2022-10-26T02:36:36;8.40;;;6.22;;
49566;SDS011;35472;50.514;30.448;2022-10-26T02:39:07;8.95;;;5.85;;
49566;SDS011;35472;50.514;30.448;2022-10-26T02:41:35;8.30;;;5.78;;
49566;SDS011;35472;50.514;30.448;2022-10-26T02:46:38;8.98;;;6.47;;
49566;SDS011;35472;50.514;30.448;2022-10-26T02:49:04;10.98;;;6.30;;
49566;SDS011;35472;50.514;30.448;2022-10-26T02:56:33;7.57;;;5.78;;
49566;SDS011;35472;50.514;30.448;2022-10-26T02:59:04;8.02;;;5.65;;
49566;SDS011;35472;50.514;30.448;2022-10-26T03:01:33;11.10;;;6.63;;
49566;SDS011;35472;50.514;30.448;2022-10-26T03:03:59;8.30;;;5.72;;
49566;SDS011;35472;50.514;30.448;2022-10-26T03:06:24;8.50;;;6.10;;
49566;SDS011;35472;50.514;30.448;2022-10-26T03:08:50;8.48;;;5.65;;
49566;SDS011;35472;50.514;30.448;2022-10-26T03:11:16;7.75;;;6.53;;
49566;SDS011;35472;50.514;30.448;2022-10-26T03:13:42;9.05;;;6.97;;
49566;SDS011;35472;50.514;30.448;2022-10-26T03:16:08;22.98;;;16.70;;
49566;SDS011;35472;50.514;30.448;2022-10-26T03:18:34;13.73;;;10.18;;
49566;SDS011;35472;50.514;30.448;2022-10-26T03:20:59;7.18;;;6.47;;
49566;SDS011;35472;50.514;30.448;2022-10-26T03:23:24;9.57;;;7.22;;
49566;SDS011;35472;50.514;30.448;2022-10-26T03:25:50;9.40;;;6.82;;
49566;SDS011;35472;50.514;30.448;2022-10-26T03:28:15;8.13;;;6.90;;
49566;SDS011;35472;50.514;30.448;2022-10-26T03:30:41;8.23;;;6.88;;
49566;SDS011;35472;50.514;30.448;2022-10-26T03:33:06;10.35;;;6.90;;
49566;SDS011;35472;50.514;30.448;2022-10-26T03:35:31;8.75;;;6.18;;
49566;SDS011;35472;50.514;30.448;2022-10-26T03:37:57;7.65;;;5.95;;
49566;SDS011;35472;50.514;30.448;2022-10-26T03:40:22;8.65;;;6.18;;
49566;SDS011;35472;50.514;30.448;2022-10-26T03:42:47;8.35;;;5.57;;
49566;SDS011;35472;50.514;30.448;2022-10-26T03:45:13;11.70;;;8.38;;
49566;SDS011;35472;50.514;30.448;2022-10-26T03:47:45;10.70;;;6.72;;
49566;SDS011;35472;50.514;30.448;2022-10-26T03:50:12;8.35;;;6.05;;
49566;SDS011;35472;50.514;30.448;2022-10-26T03:52:39;8.63;;;5.18;;
49566;SDS011;35472;50.514;30.448;2022-10-26T03:55:05;10.18;;;6.65;;
49566;SDS011;35472;50.514;30.448;2022-10-26T03:57:32;7.57;;;6.20;;
49566;SDS011;35472;50.514;30.448;2022-10-26T03:59:57;7.03;;;5.40;;
49566;SDS011;35472;50.514;30.448;2022-10-26T04:02:22;7.13;;;5.93;;
49566;SDS011;35472;50.514;30.448;2022-10-26T04:04:48;19.02;;;7.72;;
49566;SDS011;35472;50.514;30.448;2022-10-26T04:07:13;11.50;;;7.22;;
49566;SDS011;35472;50.514;30.448;2022-10-26T04:09:38;9.38;;;6.30;;
49566;SDS011;35472;50.514;30.448;2022-10-26T04:12:04;8.65;;;5.22;;
49566;SDS011;35472;50.514;30.448;2022-10-26T04:14:30;10.70;;;6.43;;
49566;SDS011;35472;50.514;30.448;2022-10-26T04:16:55;7.13;;;5.65;;
49566;SDS011;35472;50.514;30.448;2022-10-26T04:19:20;8.05;;;4.97;;
49566;SDS011;35472;50.514;30.448;2022-10-26T04:21:46;7.38;;;6.28;;
49566;SDS011;35472;50.514;30.448;2022-10-26T04:24:11;9.10;;;6.53;;
49566;SDS011;35472;50.514;30.448;2022-10-26T04:26:36;8.05;;;5.63;;
49566;SDS011;35472;50.514;30.448;2022-10-26T04:29:02;12.38;;;6.88;;
49566;SDS011;35472;50.514;30.448;2022-10-26T04:31:31;7.40;;;5.72;;
49566;SDS011;35472;50.514;30.448;2022-10-26T04:33:56;7.57;;;5.60;;
49566;SDS011;35472;50.514;30.448;2022-10-26T04:36:22;8.65;;;5.22;;
49566;SDS011;35472;50.514;30.448;2022-10-26T04:38:48;6.55;;;5.40;;
49566;SDS011;35472;50.514;30.448;2022-10-26T04:41:13;8.27;;;6.50;;
49566;SDS011;35472;50.514;30.448;2022-10-26T04:43:38;9.20;;;5.60;;
49566;SDS011;35472;50.514;30.448;2022-10-26T04:46:04;6.80;;;5.07;;
49566;SDS011;35472;50.514;30.448;2022-10-26T04:48:29;9.73;;;5.47;;
49566;SDS011;35472;50.514;30.448;2022-10-26T04:50:57;6.22;;;5.40;;
49566;SDS011;35472;50.514;30.448;2022-10-26T04:53:23;8.05;;;5.80;;
49566;SDS011;35472;50.514;30.448;2022-10-26T04:55:49;7.20;;;5.15;;
49566;SDS011;35472;50.514;30.448;2022-10-26T04:58:20;9.88;;;5.10;;
49566;SDS011;35472;50.514;30.448;2022-10-26T05:00:45;6.80;;;5.20;;
49566;SDS011;35472;50.514;30.448;2022-10-26T05:03:11;6.82;;;5.30;;
49566;SDS011;35472;50.514;30.448;2022-10-26T05:05:36;5.80;;;4.40;;
49566;SDS011;35472;50.514;30.448;2022-10-26T05:08:01;4.85;;;4.18;;
49566;SDS011;35472;50.514;30.448;2022-10-26T05:10:27;7.70;;;5.78;;
49566;SDS011;35472;50.514;30.448;2022-10-26T05:12:53;5.68;;;4.63;;
49566;SDS011;35472;50.514;30.448;2022-10-26T05:15:19;6.63;;;5.68;;
49566;SDS011;35472;50.514;30.448;2022-10-26T05:17:45;6.47;;;4.97;;
49566;SDS011;35472;50.514;30.448;2022-10-26T05:20:11;7.35;;;5.65;;
49566;SDS011;35472;50.514;30.448;2022-10-26T05:22:38;7.75;;;5.95;;
49566;SDS011;35472;50.514;30.448;2022-10-26T05:25:04;6.13;;;5.18;;
49566;SDS011;35472;50.514;30.448;2022-10-26T05:27:30;8.68;;;5.90;;
49566;SDS011;35472;50.514;30.448;2022-10-26T05:29:55;5.88;;;5.25;;
49566;SDS011;35472;50.514;30.448;2022-10-26T05:32:20;5.72;;;5.13;;
49566;SDS011;35472;50.514;30.448;2022-10-26T05:34:46;6.97;;;4.78;;
49566;SDS011;35472;50.514;30.448;2022-10-26T05:37:11;5.93;;;4.25;;
49566;SDS011;35472;50.514;30.448;2022-10-26T05:39:36;7.97;;;5.13;;
49566;SDS011;35472;50.514;30.448;2022-10-26T05:42:02;8.68;;;5.20;;
49566;SDS011;35472;50.514;30.448;2022-10-26T05:44:27;4.28;;;3.80;;
49566;SDS011;35472;50.514;30.448;2022-10-26T05:46:53;7.88;;;5.68;;
49566;SDS011;35472;50.514;30.448;2022-10-26T05:49:18;6.03;;;4.88;;
49566;SDS011;35472;50.514;30.448;2022-10-26T05:51:43;7.13;;;4.70;;
49566;SDS011;35472;50.514;30.448;2022-10-26T05:54:09;5.78;;;4.63;;
49566;SDS011;35472;50.514;30.448;2022-10-26T05:56:35;10.40;;;5.15;;
49566;SDS011;35472;50.514;30.448;2022-10-26T05:59:03;9.50;;;6.40;;
49566;SDS011;35472;50.514;30.448;2022-10-26T06:07:03;9.57;;;5.18;;
49566;SDS011;35472;50.514;30.448;2022-10-26T06:09:35;7.75;;;4.70;;
49566;SDS011;35472;50.514;30.448;2022-10-26T06:12:02;6.47;;;5.18;;
49566;SDS011;35472;50.514;30.448;2022-10-26T06:14:27;7.65;;;5.03;;
49566;SDS011;35472;50.514;30.448;2022-10-26T06:19:42;9.73;;;5.75;;
49566;SDS011;35472;50.514;30.448;2022-10-26T06:30:05;17.42;;;5.70;;
49566;SDS011;35472;50.514;30.448;2022-10-26T06:32:36;6.90;;;4.40;;
49566;SDS011;35472;50.514;30.448;2022-10-26T06:37:49;7.25;;;5.20;;
49566;SDS011;35472;50.514;30.448;2022-10-26T06:40:16;4.43;;;3.85;;
49566;SDS011;35472;50.514;30.448;2022-10-26T06:42:42;7.13;;;4.47;;
49566;SDS011;35472;50.514;30.448;2022-10-26T06:45:15;5.57;;;4.90;;
49566;SDS011;35472;50.514;30.448;2022-10-26T06:50:36;6.45;;;4.13;;
49566;SDS011;35472;50.514;30.448;2022-10-26T06:55:43;5.85;;;3.53;;
49566;SDS011;35472;50.514;30.448;2022-10-26T06:58:12;7.10;;;3.25;;
49566;SDS011;35472;50.514;30.448;2022-10-26T07:00:41;6.05;;;3.85;;
49566;SDS011;35472;50.514;30.448;2022-10-26T07:03:08;6.72;;;3.40;;
49566;SDS011;35472;50.514;30.448;2022-10-26T07:05:34;4.10;;;3.53;;
49566;SDS011;35472;50.514;30.448;2022-10-26T07:07:59;4.45;;;3.45;;
49566;SDS011;35472;50.514;30.448;2022-10-26T07:10:25;8.95;;;4.10;;
49566;SDS011;35472;50.514;30.448;2022-10-26T07:12:50;3.95;;;3.03;;
49566;SDS011;35472;50.514;30.448;2022-10-26T07:15:15;4.45;;;3.13;;
49566;SDS011;35472;50.514;30.448;2022-10-26T07:17:44;4.00;;;2.88;;
49566;SDS011;35472;50.514;30.448;2022-10-26T07:20:12;5.82;;;4.00;;
49566;SDS011;35472;50.514;30.448;2022-10-26T07:22:38;4.28;;;3.72;;
49566;SDS011;35472;50.514;30.448;2022-10-26T07:25:03;5.20;;;3.55;;
49566;SDS011;35472;50.514;30.448;2022-10-26T07:27:30;4.82;;;3.30;;
49566;SDS011;35472;50.514;30.448;2022-10-26T07:29:56;5.25;;;3.20;;
49566;SDS011;35472;50.514;30.448;2022-10-26T07:32:21;4.22;;;3.00;;
49566;SDS011;35472;50.514;30.448;2022-10-26T07:34:46;4.43;;;3.72;;
49566;SDS011;35472;50.514;30.448;2022-10-26T07:37:12;5.00;;;3.05;;
49566;SDS011;35472;50.514;30.448;2022-10-26T07:39:37;6.40;;;3.85;;
49566;SDS011;35472;50.514;30.448;2022-10-26T07:42:02;4.85;;;3.50;;
49566;SDS011;35472;50.514;30.448;2022-10-26T07:44:28;4.43;;;3.70;;
49566;SDS011;35472;50.514;30.448;2022-10-26T07:46:53;4.20;;;3.33;;
49566;SDS011;35472;50.514;30.448;2022-10-26T07:49:19;6.38;;;3.13;;
49566;SDS011;35472;50.514;30.448;2022-10-26T07:51:44;4.80;;;3.88;;
49566;SDS011;35472;50.514;30.448;2022-10-26T07:54:09;3.67;;;2.65;;
49566;SDS011;35472;50.514;30.448;2022-10-26T07:56:35;4.05;;;3.55;;
49566;SDS011;35472;50.514;30.448;2022-10-26T07:59:00;3.60;;;3.20;;
49566;SDS011;35472;50.514;30.448;2022-10-26T08:01:26;4.85;;;3.70;;
49566;SDS011;35472;50.514;30.448;2022-10-26T08:03:51;5.18;;;3.40;;
49566;SDS011;35472;50.514;30.448;2022-10-26T08:06:17;4.35;;;3.75;;
49566;SDS011;35472;50.514;30.448;2022-10-26T08:08:43;4.82;;;3.47;;
49566;SDS011;35472;50.514;30.448;2022-10-26T08:11:08;5.82;;;3.67;;
49566;SDS011;35472;50.514;30.448;2022-10-26T08:13:34;5.72;;;3.85;;
49566;SDS011;35472;50.514;30.448;2022-10-26T08:16:00;7.30;;;4.53;;
49566;SDS011;35472;50.514;30.448;2022-10-26T08:18:27;3.90;;;3.30;;
49566;SDS011;35472;50.514;30.448;2022-10-26T08:20:53;5.55;;;3.90;;
49566;SDS011;35472;50.514;30.448;2022-10-26T08:23:20;7.15;;;3.83;;
49566;SDS011;35472;50.514;30.448;2022-10-26T08:25:46;5.15;;;3.55;;
49566;SDS011;35472;50.514;30.448;2022-10-26T08:28:11;6.68;;;3.85;;
49566;SDS011;35472;50.514;30.448;2022-10-26T08:30:37;3.38;;;3.00;;
49566;SDS011;35472;50.514;30.448;2022-10-26T08:33:03;4.32;;;2.78;;
49566;SDS011;35472;50.514;30.448;2022-10-26T08:35:30;3.83;;;3.13;;
49566;SDS011;35472;50.514;30.448;2022-10-26T08:37:57;4.55;;;2.88;;
49566;SDS011;35472;50.514;30.448;2022-10-26T08:40:27;3.88;;;2.80;;
49566;SDS011;35472;50.514;30.448;2022-10-26T08:43:00;3.70;;;3.05;;
49566;SDS011;35472;50.514;30.448;2022-10-26T08:45:36;3.80;;;3.05;;
49566;SDS011;35472;50.514;30.448;2022-10-26T08:48:05;3.78;;;3.05;;
49566;SDS011;35472;50.514;30.448;2022-10-26T08:56:11;4.65;;;3.00;;
49566;SDS011;35472;50.514;30.448;2022-10-26T08:58:46;5.00;;;3.22;;
49566;SDS011;35472;50.514;30.448;2022-10-26T09:01:15;3.72;;;2.53;;
49566;SDS011;35472;50.514;30.448;2022-10-26T09:03:42;3.53;;;2.35;;
49566;SDS011;35472;50.514;30.448;2022-10-26T09:09:08;3.75;;;2.92;;
49566;SDS011;35472;50.514;30.448;2022-10-26T09:17:18;2.80;;;2.58;;
49566;SDS011;35472;50.514;30.448;2022-10-26T09:25:58;5.45;;;3.30;;
49566;SDS011;35472;50.514;30.448;2022-10-26T09:28:25;4.80;;;2.88;;
49566;SDS011;35472;50.514;30.448;2022-10-26T09:31:02;3.58;;;2.63;;
49566;SDS011;35472;50.514;30.448;2022-10-26T09:33:29;3.42;;;2.25;;
49566;SDS011;35472;50.514;30.448;2022-10-26T09:36:01;3.30;;;3.00;;
49566;SDS011;35472;50.514;30.448;2022-10-26T09:41:31;6.95;;;2.55;;
49566;SDS011;35472;50.514;30.448;2022-10-26T09:49:25;2.88;;;2.42;;
49566;SDS011;35472;50.514;30.448;2022-10-26T09:54:22;4.43;;;2.67;;
49566;SDS011;35472;50.514;30.448;2022-10-26T09:56:51;4.00;;;3.30;;
49566;SDS011;35472;50.514;30.448;2022-10-26T09:59:21;3.10;;;2.80;;
49566;SDS011;35472;50.514;30.448;2022-10-26T10:01:49;3.53;;;2.85;;
49566;SDS011;35472;50.514;30.448;2022-10-26T10:04:16;4.85;;;3.55;;
49566;SDS011;35472;50.514;30.448;2022-10-26T10:09:37;4.22;;;3.33;;
49566;SDS011;35472;50.514;30.448;2022-10-26T10:12:03;6.78;;;3.85;;
49566;SDS011;35472;50.514;30.448;2022-10-26T10:16:59;3.05;;;2.75;;
49566;SDS011;35472;50.514;30.448;2022-10-26T10:19:27;7.25;;;3.75;;
49566;SDS011;35472;50.514;30.448;2022-10-26T10:21:56;4.13;;;3.17;;
49566;SDS011;35472;50.514;30.448;2022-10-26T10:24:24;5.88;;;3.88;;
49566;SDS011;35472;50.514;30.448;2022-10-26T10:26:58;2.70;;;2.50;;
49566;SDS011;35472;50.514;30.448;2022-10-26T10:29:38;4.65;;;3.00;;
49566;SDS011;35472;50.514;30.448;2022-10-26T10:32:05;4.22;;;3.22;;
49566;SDS011;35472;50.514;30.448;2022-10-26T10:34:48;3.85;;;3.25;;
49566;SDS011;35472;50.514;30.448;2022-10-26T10:37:36;4.15;;;2.92;;
49566;SDS011;35472;50.514;30.448;2022-10-26T10:40:07;5.63;;;3.28;;
49566;SDS011;35472;50.514;30.448;2022-10-26T10:42:38;3.38;;;2.80;;
49566;SDS011;35472;50.514;30.448;2022-10-26T10:45:16;4.53;;;2.83;;
49566;SDS011;35472;50.514;30.448;2022-10-26T10:48:01;8.95;;;3.65;;
49566;SDS011;35472;50.514;30.448;2022-10-26T10:50:26;6.13;;;3.75;;
49566;SDS011;35472;50.514;30.448;2022-10-26T10:52:53;6.20;;;3.33;;
49566;SDS011;35472;50.514;30.448;2022-10-26T10:55:38;3.97;;;3.15;;
49566;SDS011;35472;50.514;30.448;2022-10-26T11:00:43;7.38;;;3.95;;
49566;SDS011;35472;50.514;30.448;2022-10-26T11:05:49;4.20;;;2.50;;
49566;SDS011;35472;50.514;30.448;2022-10-26T11:11:36;4.28;;;2.97;;
49566;SDS011;35472;50.514;30.448;2022-10-26T11:14:05;4.93;;;2.83;;
49566;SDS011;35472;50.514;30.448;2022-10-26T11:16:39;9.30;;;3.38;;
49566;SDS011;35472;50.514;30.448;2022-10-26T11:19:17;3.05;;;2.28;;
49566;SDS011;35472;50.514;30.448;2022-10-26T11:21:49;4.20;;;3.80;;
49566;SDS011;35472;50.514;30.448;2022-10-26T11:31:52;5.63;;;3.40;;
49566;SDS011;35472;50.514;30.448;2022-10-26T11:34:33;4.63;;;2.83;;
49566;SDS011;35472;50.514;30.448;2022-10-26T11:37:13;5.93;;;3.00;;
49566;SDS011;35472;50.514;30.448;2022-10-26T11:40:15;6.40;;;4.10;;
49566;SDS011;35472;50.514;30.448;2022-10-26T11:45:56;7.18;;;3.42;;
49566;SDS011;35472;50.514;30.448;2022-10-26T11:48:47;6.28;;;3.33;;
49566;SDS011;35472;50.514;30.448;2022-10-26T11:57:01;3.15;;;2.85;;
49566;SDS011;35472;50.514;30.448;2022-10-26T11:59:30;10.20;;;3.75;;
49566;SDS011;35472;50.514;30.448;2022-10-26T12:02:01;7.60;;;3.58;;
49566;SDS011;35472;50.514;30.448;2022-10-26T12:04:31;4.75;;;2.97;;
49566;SDS011;35472;50.514;30.448;2022-10-26T12:07:00;7.38;;;3.78;;
49566;SDS011;35472;50.514;30.448;2022-10-26T12:09:29;4.70;;;3.00;;
49566;SDS011;35472;50.514;30.448;2022-10-26T12:17:15;5.85;;;3.53;;
49566;SDS011;35472;50.514;30.448;2022-10-26T12:22:18;3.58;;;3.08;;
49566;SDS011;35472;50.514;30.448;2022-10-26T12:25:03;6.47;;;3.13;;
49566;SDS011;35472;50.514;30.448;2022-10-26T12:46:38;2.95;;;2.65;;
49566;SDS011;35472;50.514;30.448;2022-10-26T12:49:06;2.95;;;2.75;;
49566;SDS011;35472;50.514;30.448;2022-10-26T12:52:20;6.53;;;2.75;;
49566;SDS011;35472;50.514;30.448;2022-10-26T12:57:47;4.82;;;2.95;;
49566;SDS011;35472;50.514;30.448;2022-10-26T13:00:16;4.68;;;2.85;;
49566;SDS011;35472;50.514;30.448;2022-10-26T13:08:10;4.15;;;2.92;;
49566;SDS011;35472;50.514;30.448;2022-10-26T13:10:39;4.82;;;3.17;;
49566;SDS011;35472;50.514;30.448;2022-10-26T13:13:24;4.85;;;3.20;;
49566;SDS011;35472;50.514;30.448;2022-10-26T13:15:56;4.85;;;3.33;;
49566;SDS011;35472;50.514;30.448;2022-10-26T13:18:23;4.90;;;3.00;;
49566;SDS011;35472;50.514;30.448;2022-10-26T13:23:27;4.05;;;3.15;;
49566;SDS011;35472;50.514;30.448;2022-10-26T13:31:04;8.50;;;4.47;;
49566;SDS011;35472;50.514;30.448;2022-10-26T13:33:35;5.72;;;3.35;;
49566;SDS011;35472;50.514;30.448;2022-10-26T13:36:05;5.90;;;4.78;;
49566;SDS011;35472;50.514;30.448;2022-10-26T13:38:41;9.55;;;3.95;;
49566;SDS011;35472;50.514;30.448;2022-10-26T13:41:13;6.75;;;3.78;;
49566;SDS011;35472;50.514;30.448;2022-10-26T13:43:45;4.68;;;2.90;;
49566;SDS011;35472;50.514;30.448;2022-10-26T13:46:23;9.95;;;4.13;;
49566;SDS011;35472;50.514;30.448;2022-10-26T13:48:52;4.13;;;2.85;;
49566;SDS011;35472;50.514;30.448;2022-10-26T13:51:23;3.08;;;2.40;;
49566;SDS011;35472;50.514;30.448;2022-10-26T13:53:59;6.65;;;2.85;;
49566;SDS011;35472;50.514;30.448;2022-10-26T13:56:29;4.35;;;2.65;;
49566;SDS011;35472;50.514;30.448;2022-10-26T13:59:01;5.43;;;3.83;;
49566;SDS011;35472;50.514;30.448;2022-10-26T14:01:30;4.60;;;3.47;;
49566;SDS011;35472;50.514;30.448;2022-10-26T14:03:56;4.82;;;2.65;;
49566;SDS011;35472;50.514;30.448;2022-10-26T14:06:32;4.85;;;3.17;;
49566;SDS011;35472;50.514;30.448;2022-10-26T14:09:01;5.20;;;3.53;;
49566;SDS011;35472;50.514;30.448;2022-10-26T14:11:34;5.75;;;3.38;;
49566;SDS011;35472;50.514;30.448;2022-10-26T14:14:09;6.78;;;4.00;;
49566;SDS011;35472;50.514;30.448;2022-10-26T14:16:41;4.35;;;3.30;;
49566;SDS011;35472;50.514;30.448;2022-10-26T14:19:14;3.25;;;2.72;;
49566;SDS011;35472;50.514;30.448;2022-10-26T14:21:48;7.97;;;4.22;;
49566;SDS011;35472;50.514;30.448;2022-10-26T14:24:19;3.88;;;3.28;;
49566;SDS011;35472;50.514;30.448;2022-10-26T14:26:52;7.53;;;3.78;;
49566;SDS011;35472;50.514;30.448;2022-10-26T14:29:21;3.75;;;3.33;;
49566;SDS011;35472;50.514;30.448;2022-10-26T14:31:48;4.90;;;3.42;;
49566;SDS011;35472;50.514;30.448;2022-10-26T14:34:15;5.22;;;3.28;;
49566;SDS011;35472;50.514;30.448;2022-10-26T14:36:46;5.00;;;3.53;;
49566;SDS011;35472;50.514;30.448;2022-10-26T14:39:57;3.33;;;3.00;;
49566;SDS011;35472;50.514;30.448;2022-10-26T14:42:27;2.67;;;2.47;;
49566;SDS011;35472;50.514;30.448;2022-10-26T14:44:56;5.80;;;3.47;;
49566;SDS011;35472;50.514;30.448;2022-10-26T14:49:51;5.18;;;4.10;;
49566;SDS011;35472;50.514;30.448;2022-10-26T14:52:23;4.00;;;2.75;;
49566;SDS011;35472;50.514;30.448;2022-10-26T14:54:56;4.80;;;3.25;;
49566;SDS011;35472;50.514;30.448;2022-10-26T14:57:33;3.83;;;2.63;;
49566;SDS011;35472;50.514;30.448;2022-10-26T15:00:02;4.85;;;3.17;;
49566;SDS011;35472;50.514;30.448;2022-10-26T15:02:39;5.05;;;2.92;;
49566;SDS011;35472;50.514;30.448;2022-10-26T15:05:16;4.25;;;2.50;;
49566;SDS011;35472;50.514;30.448;2022-10-26T15:07:42;8.70;;;3.30;;
49566;SDS011;35472;50.514;30.448;2022-10-26T15:15:56;3.50;;;2.22;;
49566;SDS011;35472;50.514;30.448;2022-10-26T15:18:40;1.52;;;1.42;;
49566;SDS011;35472;50.514;30.448;2022-10-26T15:21:17;2.10;;;1.70;;
49566;SDS011;35472;50.514;30.448;2022-10-26T15:23:45;2.85;;;1.70;;
49566;SDS011;35472;50.514;30.448;2022-10-26T15:26:10;2.40;;;2.03;;
49566;SDS011;35472;50.514;30.448;2022-10-26T15:36:17;2.35;;;1.67;;
49566;SDS011;35472;50.514;30.448;2022-10-26T15:38:45;1.83;;;1.13;;
49566;SDS011;35472;50.514;30.448;2022-10-26T15:41:18;2.08;;;1.67;;
49566;SDS011;35472;50.514;30.448;2022-10-26T15:43:48;5.53;;;2.15;;
49566;SDS011;35472;50.514;30.448;2022-10-26T15:46:15;1.58;;;1.45;;
49566;SDS011;35472;50.514;30.448;2022-10-26T15:48:41;2.47;;;1.77;;
49566;SDS011;35472;50.514;30.448;2022-10-26T15:51:11;2.10;;;1.60;;
49566;SDS011;35472;50.514;30.448;2022-10-26T15:53:37;1.65;;;1.40;;
49566;SDS011;35472;50.514;30.448;2022-10-26T15:56:03;6.95;;;2.20;;
49566;SDS011;35472;50.514;30.448;2022-10-26T15:58:37;2.78;;;1.40;;
49566;SDS011;35472;50.514;30.448;2022-10-26T16:01:03;5.00;;;2.08;;
49566;SDS011;35472;50.514;30.448;2022-10-26T16:03:28;3.63;;;1.90;;
49566;SDS011;35472;50.514;30.448;2022-10-26T16:05:55;2.28;;;1.67;;
49566;SDS011;35472;50.514;30.448;2022-10-26T16:08:23;2.20;;;1.90;;
49566;SDS011;35472;50.514;30.448;2022-10-26T16:10:51;2.95;;;1.30;;
49566;SDS011;35472;50.514;30.448;2022-10-26T16:13:17;5.63;;;4.07;;
49566;SDS011;35472;50.514;30.448;2022-10-26T16:15:42;2.75;;;2.28;;
49566;SDS011;35472;50.514;30.448;2022-10-26T16:18:08;2.95;;;2.15;;
49566;SDS011;35472;50.514;30.448;2022-10-26T16:20:33;3.20;;;2.58;;
49566;SDS011;35472;50.514;30.448;2022-10-26T16:22:59;8.05;;;2.53;;
49566;SDS011;35472;50.514;30.448;2022-10-26T16:25:30;4.00;;;2.08;;
49566;SDS011;35472;50.514;30.448;2022-10-26T16:28:05;7.55;;;2.90;;
49566;SDS011;35472;50.514;30.448;2022-10-26T16:30:30;2.70;;;1.95;;
49566;SDS011;35472;50.514;30.448;2022-10-26T16:32:56;4.47;;;2.60;;
49566;SDS011;35472;50.514;30.448;2022-10-26T16:35:22;2.90;;;2.38;;
49566;SDS011;35472;50.514;30.448;2022-10-26T16:37:47;4.00;;;2.00;;
49566;SDS011;35472;50.514;30.448;2022-10-26T16:40:13;3.65;;;2.35;;
49566;SDS011;35472;50.514;30.448;2022-10-26T16:42:38;3.47;;;1.80;;
49566;SDS011;35472;50.514;30.448;2022-10-26T16:45:08;5.05;;;2.38;;
49566;SDS011;35472;50.514;30.448;2022-10-26T16:47:37;2.88;;;2.58;;
49566;SDS011;35472;50.514;30.448;2022-10-26T16:50:04;3.00;;;2.10;;
49566;SDS011;35472;50.514;30.448;2022-10-26T16:52:35;3.00;;;2.08;;
49566;SDS011;35472;50.514;30.448;2022-10-26T16:55:01;4.88;;;2.88;;
49566;SDS011;35472;50.514;30.448;2022-10-26T16:57:27;3.63;;;2.95;;
49566;SDS011;35472;50.514;30.448;2022-10-26T16:59:53;4.47;;;3.22;;
49566;SDS011;35472;50.514;30.448;2022-10-26T17:02:18;5.00;;;2.53;;
49566;SDS011;35472;50.514;30.448;2022-10-26T17:04:44;4.00;;;3.10;;
49566;SDS011;35472;50.514;30.448;2022-10-26T17:07:10;4.78;;;2.95;;
49566;SDS011;35472;50.514;30.448;2022-10-26T17:09:35;3.25;;;2.55;;
49566;SDS011;35472;50.514;30.448;2022-10-26T17:12:01;2.97;;;2.28;;
49566;SDS011;35472;50.514;30.448;2022-10-26T17:14:27;4.32;;;2.97;;
49566;SDS011;35472;50.514;30.448;2022-10-26T17:16:52;2.75;;;2.42;;
49566;SDS011;35472;50.514;30.448;2022-10-26T17:19:17;3.67;;;2.63;;
49566;SDS011;35472;50.514;30.448;2022-10-26T17:21:43;6.10;;;2.83;;
49566;SDS011;35472;50.514;30.448;2022-10-26T17:24:09;2.97;;;2.40;;
49566;SDS011;35472;50.514;30.448;2022-10-26T17:26:35;4.55;;;2.72;;
49566;SDS011;35472;50.514;30.448;2022-10-26T17:29:01;6.57;;;2.90;;
49566;SDS011;35472;50.514;30.448;2022-10-26T17:31:26;5.47;;;2.63;;
49566;SDS011;35472;50.514;30.448;2022-10-26T17:33:52;4.63;;;2.22;;
49566;SDS011;35472;50.514;30.448;2022-10-26T17:36:18;4.28;;;3.15;;
49566;SDS011;35472;50.514;30.448;2022-10-26T17:38:50;3.17;;;2.10;;